sensor_id;sensor_type;location;lat;lon;timestamp;pressure;altitude;pressure_sealevel;temperature;humidity
75409;BME280;63979;55.644;37.734;2022-11-20T00:02:56;100260.66;;;-0.88;78.52
75409;BME280;63979;55.644;37.734;2022-11-20T00:07:57;100259.72;;;-0.83;77.90
75409;BME280;63979;55.644;37.734;2022-11-20T00:13:00;100271.78;;;-0.73;78.01
75409;BME280;63979;55.644;37.734;2022-11-20T00:18:01;100269.28;;;-0.80;77.96
75409;BME280;63979;55.644;37.734;2022-11-20T00:23:02;100267.63;;;-0.87;78.49
75409;BME280;63979;55.644;37.734;2022-11-20T00:28:03;100271.41;;;-1.07;77.51
75409;BME280;63979;55.644;37.734;2022-11-20T00:33:07;100274.91;;;-1.08;77.62
75409;BME280;63979;55.644;37.734;2022-11-20T00:38:07;100276.06;;;-1.27;77.97
75409;BME280;63979;55.644;37.734;2022-11-20T00:43:08;100243.28;;;-1.57;78.22
75409;BME280;63979;55.644;37.734;2022-11-20T00:48:10;100285.00;;;-1.45;77.87
75409;BME280;63979;55.644;37.734;2022-11-20T00:53:11;100275.44;;;-1.47;77.48
75409;BME280;63979;55.644;37.734;2022-11-20T00:58:12;100271.94;;;-1.46;78.18
75409;BME280;63979;55.644;37.734;2022-11-20T01:03:14;100263.38;;;-1.58;77.56
75409;BME280;63979;55.644;37.734;2022-11-20T01:08:14;100272.94;;;-1.57;77.84
75409;BME280;63979;55.644;37.734;2022-11-20T01:13:15;100273.03;;;-1.63;77.31
75409;BME280;63979;55.644;37.734;2022-11-20T01:18:36;100272.94;;;-1.57;77.01
75409;BME280;63979;55.644;37.734;2022-11-20T01:23:40;100281.66;;;-1.54;77.62
75409;BME280;63979;55.644;37.734;2022-11-20T01:28:42;100269.53;;;-1.63;76.90
75409;BME280;63979;55.644;37.734;2022-11-20T01:33:47;100228.06;;;-1.95;77.36
75409;BME280;63979;55.644;37.734;2022-11-20T01:39:00;100292.22;;;-1.62;76.66
75409;BME280;63979;55.644;37.734;2022-11-20T01:44:03;100293.16;;;-1.68;77.91
75409;BME280;63979;55.644;37.734;2022-11-20T01:49:16;100277.56;;;-1.80;78.06
75409;BME280;63979;55.644;37.734;2022-11-20T01:54:32;100288.75;;;-1.66;77.16
75409;BME280;63979;55.644;37.734;2022-11-20T01:59:40;100306.19;;;-1.65;77.90
75409;BME280;63979;55.644;37.734;2022-11-20T02:04:44;100262.06;;;-1.97;77.94
75409;BME280;63979;55.644;37.734;2022-11-20T02:09:45;100305.50;;;-1.82;78.01
75409;BME280;63979;55.644;37.734;2022-11-20T02:14:46;100321.13;;;-1.76;77.43
75409;BME280;63979;55.644;37.734;2022-11-20T02:19:47;100319.34;;;-1.71;77.65
75409;BME280;63979;55.644;37.734;2022-11-20T02:24:49;100331.66;;;-1.82;78.32
75409;BME280;63979;55.644;37.734;2022-11-20T02:40:18;100337.63;;;-1.68;77.16
75409;BME280;63979;55.644;37.734;2022-11-20T02:45:20;100305.59;;;-1.91;76.73
75409;BME280;63979;55.644;37.734;2022-11-20T02:50:21;100349.03;;;-1.72;76.82
75409;BME280;63979;55.644;37.734;2022-11-20T02:55:22;100299.66;;;-2.07;77.13
75409;BME280;63979;55.644;37.734;2022-11-20T03:00:23;100329.94;;;-1.84;77.01
75409;BME280;63979;55.644;37.734;2022-11-20T03:05:24;100334.25;;;-1.80;77.26
75409;BME280;63979;55.644;37.734;2022-11-20T03:10:25;100323.91;;;-1.90;77.01
75409;BME280;63979;55.644;37.734;2022-11-20T03:15:26;100348.22;;;-1.81;76.30
75409;BME280;63979;55.644;37.734;2022-11-20T03:20:26;100354.28;;;-1.78;77.02
75409;BME280;63979;55.644;37.734;2022-11-20T03:25:27;100323.19;;;-2.05;76.71
75409;BME280;63979;55.644;37.734;2022-11-20T03:30:29;100351.78;;;-1.87;76.88
75409;BME280;63979;55.644;37.734;2022-11-20T03:35:29;100360.53;;;-1.91;76.39
75409;BME280;63979;55.644;37.734;2022-11-20T03:40:30;100357.94;;;-1.94;76.86
75409;BME280;63979;55.644;37.734;2022-11-20T03:45:31;100357.88;;;-1.88;76.41
75409;BME280;63979;55.644;37.734;2022-11-20T03:50:32;100352.59;;;-1.82;76.44
75409;BME280;63979;55.644;37.734;2022-11-20T03:55:33;100315.44;;;-2.17;76.39
75409;BME280;63979;55.644;37.734;2022-11-20T04:00:34;100380.47;;;-1.79;75.51
75409;BME280;63979;55.644;37.734;2022-11-20T04:05:35;100375.22;;;-1.78;75.58
75409;BME280;63979;55.644;37.734;2022-11-20T04:10:36;100380.50;;;-1.84;76.42
75409;BME280;63979;55.644;37.734;2022-11-20T04:15:37;100384.84;;;-1.80;76.08
75409;BME280;63979;55.644;37.734;2022-11-20T04:20:38;100391.75;;;-1.71;76.56
75409;BME280;63979;55.644;37.734;2022-11-20T04:25:38;100379.59;;;-1.80;75.27
75409;BME280;63979;55.644;37.734;2022-11-20T04:30:39;100351.94;;;-2.02;75.66
75409;BME280;63979;55.644;37.734;2022-11-20T04:35:40;100410.13;;;-1.79;75.92
75409;BME280;63979;55.644;37.734;2022-11-20T04:40:41;100407.44;;;-1.70;75.17
75409;BME280;63979;55.644;37.734;2022-11-20T04:45:41;100387.56;;;-1.92;74.96
75409;BME280;63979;55.644;37.734;2022-11-20T04:50:42;100436.22;;;-1.70;74.55
75409;BME280;63979;55.644;37.734;2022-11-20T04:55:43;100440.56;;;-1.67;75.19
75409;BME280;63979;55.644;37.734;2022-11-20T05:00:44;100429.28;;;-1.77;75.23
75409;BME280;63979;55.644;37.734;2022-11-20T05:05:45;100442.28;;;-1.65;74.54
75409;BME280;63979;55.644;37.734;2022-11-20T05:10:46;100440.53;;;-1.66;74.82
75409;BME280;63979;55.644;37.734;2022-11-20T05:15:47;100442.28;;;-1.65;74.50
75409;BME280;63979;55.644;37.734;2022-11-20T05:20:54;100461.44;;;-1.63;74.33
75409;BME280;63979;55.644;37.734;2022-11-20T05:25:56;100456.22;;;-1.63;74.40
75409;BME280;63979;55.644;37.734;2022-11-20T05:31:09;100469.31;;;-1.66;74.47
75409;BME280;63979;55.644;37.734;2022-11-20T05:36:12;100476.22;;;-1.55;74.43
75409;BME280;63979;55.644;37.734;2022-11-20T05:41:16;100484.03;;;-1.51;73.47
75409;BME280;63979;55.644;37.734;2022-11-20T05:46:18;100479.53;;;-1.40;73.03
75409;BME280;63979;55.644;37.734;2022-11-20T05:51:19;100467.50;;;-1.58;72.78
75409;BME280;63979;55.644;37.734;2022-11-20T05:56:21;100444.00;;;-1.62;73.17
75409;BME280;63979;55.644;37.734;2022-11-20T06:01:24;100496.06;;;-1.30;73.11
75409;BME280;63979;55.644;37.734;2022-11-20T06:06:25;100469.97;;;-1.44;72.76
75409;BME280;63979;55.644;37.734;2022-11-20T06:11:27;100521.16;;;-1.11;72.22
75409;BME280;63979;55.644;37.734;2022-11-20T06:16:28;100528.25;;;-1.19;72.02
75409;BME280;63979;55.644;37.734;2022-11-20T06:21:29;100492.66;;;-1.38;72.68
75409;BME280;63979;55.644;37.734;2022-11-20T06:26:30;100546.41;;;-1.01;71.95
75409;BME280;63979;55.644;37.734;2022-11-20T06:31:31;100551.66;;;-1.05;71.82
75409;BME280;63979;55.644;37.734;2022-11-20T06:36:35;100549.09;;;-1.10;72.29
75409;BME280;63979;55.644;37.734;2022-11-20T06:41:36;100562.91;;;-0.92;71.76
75409;BME280;63979;55.644;37.734;2022-11-20T06:46:37;100554.91;;;-0.80;71.35
75409;BME280;63979;55.644;37.734;2022-11-20T06:51:38;100540.06;;;-0.81;71.21
75409;BME280;63979;55.644;37.734;2022-11-20T06:56:39;100545.25;;;-0.75;71.02
75409;BME280;63979;55.644;37.734;2022-11-20T07:01:40;100555.75;;;-0.78;70.31
75409;BME280;63979;55.644;37.734;2022-11-20T07:06:41;100559.13;;;-0.64;70.18
75409;BME280;63979;55.644;37.734;2022-11-20T07:11:42;100551.19;;;-0.59;69.77
75409;BME280;63979;55.644;37.734;2022-11-20T07:16:42;100546.13;;;-0.75;70.51
75409;BME280;63979;55.644;37.734;2022-11-20T07:21:43;100559.09;;;-0.63;69.98
75409;BME280;63979;55.644;37.734;2022-11-20T07:26:46;100568.69;;;-0.60;69.89
75409;BME280;63979;55.644;37.734;2022-11-20T07:31:49;100513.78;;;-0.74;70.09
75409;BME280;63979;55.644;37.734;2022-11-20T07:36:50;100558.03;;;-0.46;69.62
75409;BME280;63979;55.644;37.734;2022-11-20T07:41:51;100550.91;;;-0.34;68.89
75409;BME280;63979;55.644;37.734;2022-11-20T07:46:52;100575.38;;;-0.35;69.21
75409;BME280;63979;55.644;37.734;2022-11-20T07:51:53;100564.00;;;-0.34;68.79
75409;BME280;63979;55.644;37.734;2022-11-20T07:56:54;100544.16;;;-0.54;68.74
75409;BME280;63979;55.644;37.734;2022-11-20T08:01:55;100590.25;;;-0.37;69.30
75409;BME280;63979;55.644;37.734;2022-11-20T08:06:56;100582.38;;;-0.34;69.31
75409;BME280;63979;55.644;37.734;2022-11-20T08:11:57;100559.09;;;-0.61;68.68
75409;BME280;63979;55.644;37.734;2022-11-20T08:17:16;100605.00;;;-0.26;69.27
75409;BME280;63979;55.644;37.734;2022-11-20T08:22:17;100597.25;;;-0.37;69.03
75409;BME280;63979;55.644;37.734;2022-11-20T08:27:18;100574.63;;;-0.46;69.04
75409;BME280;63979;55.644;37.734;2022-11-20T08:32:19;100603.28;;;-0.29;68.80
75409;BME280;63979;55.644;37.734;2022-11-20T08:37:20;100599.75;;;-0.26;68.81
75409;BME280;63979;55.644;37.734;2022-11-20T08:42:21;100600.50;;;-0.15;68.35
75409;BME280;63979;55.644;37.734;2022-11-20T08:47:21;100596.06;;;-0.12;68.35
75409;BME280;63979;55.644;37.734;2022-11-20T08:52:23;100615.25;;;-0.07;67.98
75409;BME280;63979;55.644;37.734;2022-11-20T08:57:23;100633.41;;;0.10;68.67
75409;BME280;63979;55.644;37.734;2022-11-20T09:02:25;100647.69;;;-0.14;68.63
75409;BME280;63979;55.644;37.734;2022-11-20T09:07:25;100656.22;;;0.05;68.18
75409;BME280;63979;55.644;37.734;2022-11-20T09:12:26;100647.56;;;-0.03;68.52
75409;BME280;63979;55.644;37.734;2022-11-20T09:17:27;100658.06;;;-0.03;69.06
75409;BME280;63979;55.644;37.734;2022-11-20T09:22:28;100674.66;;;-0.03;68.98
75409;BME280;63979;55.644;37.734;2022-11-20T09:27:29;100680.81;;;-0.05;68.83
75409;BME280;63979;55.644;37.734;2022-11-20T09:32:30;100656.44;;;-0.13;68.49
75409;BME280;63979;55.644;37.734;2022-11-20T09:37:31;100702.47;;;0.15;69.17
75409;BME280;63979;55.644;37.734;2022-11-20T09:43:07;100699.97;;;0.06;68.96
75409;BME280;63979;55.644;37.734;2022-11-20T09:59:02;100696.44;;;0.07;70.12
75409;BME280;63979;55.644;37.734;2022-11-20T10:04:10;100702.75;;;-0.11;70.90
75409;BME280;63979;55.644;37.734;2022-11-20T10:09:21;100708.25;;;-0.32;72.08
75409;BME280;63979;55.644;37.734;2022-11-20T10:20:34;100721.38;;;-0.38;72.84
75409;BME280;63979;55.644;37.734;2022-11-20T10:30:55;100671.75;;;-0.55;73.19
75409;BME280;63979;55.644;37.734;2022-11-20T10:41:16;100720.41;;;-0.25;74.35
75409;BME280;63979;55.644;37.734;2022-11-20T10:46:32;100724.63;;;-0.10;73.36
75409;BME280;63979;55.644;37.734;2022-11-20T10:52:04;100730.78;;;-0.14;73.44
75409;BME280;63979;55.644;37.734;2022-11-20T10:57:20;100722.09;;;-0.21;72.47
75409;BME280;63979;55.644;37.734;2022-11-20T11:02:41;100730.75;;;-0.13;71.68
75409;BME280;63979;55.644;37.734;2022-11-20T11:07:44;100744.81;;;-0.18;71.70
75409;BME280;63979;55.644;37.734;2022-11-20T11:12:46;100743.13;;;-0.22;72.15
75409;BME280;63979;55.644;37.734;2022-11-20T11:17:51;100744.09;;;-0.31;72.41
75409;BME280;63979;55.644;37.734;2022-11-20T11:22:57;100704.94;;;-0.54;72.00
75409;BME280;63979;55.644;37.734;2022-11-20T11:28:21;100755.16;;;-0.05;71.28
75409;BME280;63979;55.644;37.734;2022-11-20T11:33:29;100756.13;;;-0.13;71.40
75409;BME280;63979;55.644;37.734;2022-11-20T11:38:36;100743.97;;;-0.20;71.72
75409;BME280;63979;55.644;37.734;2022-11-20T11:43:38;100744.84;;;-0.20;71.67
75409;BME280;63979;55.644;37.734;2022-11-20T11:49:00;100747.31;;;-0.06;71.48
75409;BME280;63979;55.644;37.734;2022-11-20T11:54:05;100753.34;;;0.05;70.70
75409;BME280;63979;55.644;37.734;2022-11-20T11:59:22;100750.72;;;0.05;69.95
75409;BME280;63979;55.644;37.734;2022-11-20T12:04:42;100766.47;;;0.05;68.96
75409;BME280;63979;55.644;37.734;2022-11-20T12:09:48;100686.47;;;-0.43;69.01
75409;BME280;63979;55.644;37.734;2022-11-20T12:14:53;100759.47;;;0.04;68.43
75409;BME280;63979;55.644;37.734;2022-11-20T12:19:56;100767.28;;;0.09;68.15
75409;BME280;63979;55.644;37.734;2022-11-20T12:30:15;100756.91;;;-0.04;68.49
75409;BME280;63979;55.644;37.734;2022-11-20T12:46:01;100771.81;;;-0.07;66.86
75409;BME280;63979;55.644;37.734;2022-11-20T12:56:43;100778.78;;;-0.06;67.68
75409;BME280;63979;55.644;37.734;2022-11-20T13:01:57;100790.16;;;-0.07;67.39
75409;BME280;63979;55.644;37.734;2022-11-20T13:07:02;100780.66;;;-0.16;67.18
75409;BME280;63979;55.644;37.734;2022-11-20T13:12:43;100788.50;;;-0.14;67.25
75409;BME280;63979;55.644;37.734;2022-11-20T13:17:44;100782.53;;;-0.28;67.63
75409;BME280;63979;55.644;37.734;2022-11-20T13:22:50;100745.03;;;-0.43;67.91
75409;BME280;63979;55.644;37.734;2022-11-20T13:27:53;100796.44;;;-0.20;67.04
75409;BME280;63979;55.644;37.734;2022-11-20T13:33:09;100803.31;;;-0.10;66.63
75409;BME280;63979;55.644;37.734;2022-11-20T13:38:23;100797.22;;;-0.12;66.98
75409;BME280;63979;55.644;37.734;2022-11-20T13:48:34;100809.41;;;-0.05;68.41
75409;BME280;63979;55.644;37.734;2022-11-20T14:03:53;100812.91;;;-0.06;67.10
75409;BME280;63979;55.644;37.734;2022-11-20T14:08:55;100814.66;;;-0.05;66.45
75409;BME280;63979;55.644;37.734;2022-11-20T14:19:28;100833.88;;;-0.05;66.38
75409;BME280;63979;55.644;37.734;2022-11-20T14:24:31;100841.81;;;-0.12;66.91
75409;BME280;63979;55.644;37.734;2022-11-20T14:29:36;100828.69;;;-0.09;66.38
75409;BME280;63979;55.644;37.734;2022-11-20T14:34:40;100824.34;;;-0.12;65.54
75409;BME280;63979;55.644;37.734;2022-11-20T14:39:42;100844.38;;;-0.05;66.02
75409;BME280;63979;55.644;37.734;2022-11-20T14:44:48;100850.59;;;-0.13;65.23
75409;BME280;63979;55.644;37.734;2022-11-20T14:49:51;100842.84;;;-0.28;65.47
75409;BME280;63979;55.644;37.734;2022-11-20T14:54:55;100860.16;;;-0.09;66.42
75409;BME280;63979;55.644;37.734;2022-11-20T15:00:26;100850.63;;;-0.16;65.11
75409;BME280;63979;55.644;37.734;2022-11-20T15:05:48;100848.94;;;-0.23;66.10
75409;BME280;63979;55.644;37.734;2022-11-20T15:10:51;100851.50;;;-0.19;65.46
75409;BME280;63979;55.644;37.734;2022-11-20T15:15:54;100859.41;;;-0.22;66.00
75409;BME280;63979;55.644;37.734;2022-11-20T15:20:56;100846.22;;;-0.14;66.75
75409;BME280;63979;55.644;37.734;2022-11-20T15:25:58;100845.38;;;-0.16;66.82
75409;BME280;63979;55.644;37.734;2022-11-20T15:30:59;100839.28;;;-0.21;66.31
75409;BME280;63979;55.644;37.734;2022-11-20T15:36:01;100832.41;;;-0.36;66.75
75409;BME280;63979;55.644;37.734;2022-11-20T15:41:02;100840.22;;;-0.27;67.60
75409;BME280;63979;55.644;37.734;2022-11-20T15:46:05;100813.22;;;-0.41;67.21
75409;BME280;63979;55.644;37.734;2022-11-20T15:56:12;100823.50;;;-0.15;68.10
75409;BME280;63979;55.644;37.734;2022-11-20T16:01:16;100852.25;;;-0.06;67.11
75409;BME280;63979;55.644;37.734;2022-11-20T16:06:18;100848.00;;;-0.16;67.58
75409;BME280;63979;55.644;37.734;2022-11-20T16:11:19;100860.19;;;-0.11;68.41
75409;BME280;63979;55.644;37.734;2022-11-20T16:16:37;100821.03;;;-0.32;69.17
75409;BME280;63979;55.644;37.734;2022-11-20T16:21:40;100843.69;;;-0.23;69.13
75409;BME280;63979;55.644;37.734;2022-11-20T16:26:42;100835.88;;;-0.29;70.40
75409;BME280;63979;55.644;37.734;2022-11-20T16:31:43;100838.53;;;-0.39;70.72
75409;BME280;63979;55.644;37.734;2022-11-20T16:36:45;100840.28;;;-0.38;70.55
75409;BME280;63979;55.644;37.734;2022-11-20T16:41:47;100828.13;;;-0.48;71.38
75409;BME280;63979;55.644;37.734;2022-11-20T16:46:50;100849.94;;;-0.44;72.50
75409;BME280;63979;55.644;37.734;2022-11-20T16:51:51;100844.72;;;-0.47;71.97
75409;BME280;63979;55.644;37.734;2022-11-20T16:56:52;100807.31;;;-0.72;72.07
75409;BME280;63979;55.644;37.734;2022-11-20T17:01:54;100847.38;;;-0.50;72.13
75409;BME280;63979;55.644;37.734;2022-11-20T17:06:54;100846.56;;;-0.58;71.98
75409;BME280;63979;55.644;37.734;2022-11-20T17:11:55;100843.06;;;-0.57;71.64
75409;BME280;63979;55.644;37.734;2022-11-20T17:16:57;100842.97;;;-0.45;71.36
75409;BME280;63979;55.644;37.734;2022-11-20T17:21:58;100747.28;;;-1.09;70.79
75409;BME280;63979;55.644;37.734;2022-11-20T17:26:59;100820.38;;;-0.61;70.69
75409;BME280;63979;55.644;37.734;2022-11-20T17:32:00;100835.16;;;-0.53;70.17
75409;BME280;63979;55.644;37.734;2022-11-20T17:37:00;100841.25;;;-0.51;69.48
75409;BME280;63979;55.644;37.734;2022-11-20T17:42:02;100846.53;;;-0.52;69.52
75409;BME280;63979;55.644;37.734;2022-11-20T17:47:21;100861.34;;;-0.50;69.61
75409;BME280;63979;55.644;37.734;2022-11-20T17:52:22;100840.41;;;-0.53;69.62
75409;BME280;63979;55.644;37.734;2022-11-20T17:57:24;100854.38;;;-0.51;69.48
75409;BME280;63979;55.644;37.734;2022-11-20T18:02:44;100867.44;;;-0.45;69.24
75409;BME280;63979;55.644;37.734;2022-11-20T18:07:45;100864.88;;;-0.51;69.15
75409;BME280;63979;55.644;37.734;2022-11-20T18:12:46;100845.66;;;-0.53;67.91
75409;BME280;63979;55.644;37.734;2022-11-20T18:17:47;100864.94;;;-0.63;68.68
75409;BME280;63979;55.644;37.734;2022-11-20T18:22:48;100849.25;;;-0.74;68.32
75409;BME280;63979;55.644;37.734;2022-11-20T18:27:49;100854.47;;;-0.63;68.58
75409;BME280;63979;55.644;37.734;2022-11-20T18:32:50;100866.69;;;-0.62;68.05
75409;BME280;63979;55.644;37.734;2022-11-20T18:37:51;100852.81;;;-0.79;67.77
75409;BME280;63979;55.644;37.734;2022-11-20T18:42:52;100873.66;;;-0.58;67.68
75409;BME280;63979;55.644;37.734;2022-11-20T18:48:11;100871.94;;;-0.60;68.01
75409;BME280;63979;55.644;37.734;2022-11-20T18:53:13;100870.19;;;-0.61;67.53
75409;BME280;63979;55.644;37.734;2022-11-20T18:58:14;100877.13;;;-0.53;67.54
75409;BME280;63979;55.644;37.734;2022-11-20T19:03:15;100864.81;;;-0.46;67.35
75409;BME280;63979;55.644;37.734;2022-11-20T19:08:17;100867.44;;;-0.45;66.20
75409;BME280;63979;55.644;37.734;2022-11-20T19:13:18;100843.91;;;-0.54;66.39
75409;BME280;63979;55.644;37.734;2022-11-20T19:18:19;100851.81;;;-0.60;66.94
75409;BME280;63979;55.644;37.734;2022-11-20T19:23:20;100837.78;;;-0.53;66.42
75409;BME280;63979;55.644;37.734;2022-11-20T19:28:21;100840.50;;;-0.65;66.50
75409;BME280;63979;55.644;37.734;2022-11-20T19:33:23;100840.53;;;-0.74;67.75
75409;BME280;63979;55.644;37.734;2022-11-20T19:38:24;100837.91;;;-0.73;68.35
75409;BME280;63979;55.644;37.734;2022-11-20T19:43:25;100851.00;;;-0.68;68.07
75409;BME280;63979;55.644;37.734;2022-11-20T19:48:31;100802.13;;;-0.78;68.44
75409;BME280;63979;55.644;37.734;2022-11-20T19:53:32;100819.53;;;-0.71;68.09
75409;BME280;63979;55.644;37.734;2022-11-20T19:58:34;100836.16;;;-0.69;69.49
75409;BME280;63979;55.644;37.734;2022-11-20T20:03:39;100850.25;;;-0.91;71.13
75409;BME280;63979;55.644;37.734;2022-11-20T20:08:41;100855.53;;;-0.99;71.49
75409;BME280;63979;55.644;37.734;2022-11-20T20:13:42;100861.63;;;-0.92;71.00
75409;BME280;63979;55.644;37.734;2022-11-20T20:18:44;100889.53;;;-0.85;71.42
75409;BME280;63979;55.644;37.734;2022-11-20T20:23:49;100875.53;;;-0.84;71.08
75409;BME280;63979;55.644;37.734;2022-11-20T20:28:50;100883.38;;;-0.78;71.04
75409;BME280;63979;55.644;37.734;2022-11-20T20:33:51;100874.69;;;-0.85;70.98
75409;BME280;63979;55.644;37.734;2022-11-20T20:38:56;100877.28;;;-0.83;71.11
75409;BME280;63979;55.644;37.734;2022-11-20T20:44:00;100870.28;;;-0.81;70.98
75409;BME280;63979;55.644;37.734;2022-11-20T20:49:20;100847.63;;;-0.88;70.44
75409;BME280;63979;55.644;37.734;2022-11-20T20:54:20;100865.94;;;-0.84;70.41
75409;BME280;63979;55.644;37.734;2022-11-20T20:59:21;100880.78;;;-0.84;70.52
75409;BME280;63979;55.644;37.734;2022-11-20T21:04:22;100875.53;;;-0.81;71.00
75409;BME280;63979;55.644;37.734;2022-11-20T21:09:24;100904.31;;;-0.77;70.04
75409;BME280;63979;55.644;37.734;2022-11-20T21:14:24;100844.19;;;-1.06;70.36
75409;BME280;63979;55.644;37.734;2022-11-20T21:19:25;100891.28;;;-0.84;70.24
75409;BME280;63979;55.644;37.734;2022-11-20T21:24:34;100868.59;;;-0.91;70.27
75409;BME280;63979;55.644;37.734;2022-11-20T21:29:35;100890.38;;;-0.82;69.59
75409;BME280;63979;55.644;37.734;2022-11-20T21:34:36;100889.50;;;-0.82;69.52
75409;BME280;63979;55.644;37.734;2022-11-20T21:39:37;100872.91;;;-0.83;69.26
75409;BME280;63979;55.644;37.734;2022-11-20T21:44:49;100875.50;;;-0.78;69.21
75409;BME280;63979;55.644;37.734;2022-11-20T21:49:50;100859.81;;;-0.83;68.60
75409;BME280;63979;55.644;37.734;2022-11-20T21:54:51;100858.91;;;-0.79;68.95
75409;BME280;63979;55.644;37.734;2022-11-20T21:59:52;100855.38;;;-0.75;68.64
75409;BME280;63979;55.644;37.734;2022-11-20T22:04:53;100878.13;;;-0.80;67.93
75409;BME280;63979;55.644;37.734;2022-11-20T22:09:54;100888.59;;;-0.78;68.52
75409;BME280;63979;55.644;37.734;2022-11-20T22:14:55;100867.69;;;-0.87;68.01
75409;BME280;63979;55.644;37.734;2022-11-20T22:19:55;100873.84;;;-0.91;68.04
75409;BME280;63979;55.644;37.734;2022-11-20T22:24:56;100873.91;;;-1.04;69.08
75409;BME280;63979;55.644;37.734;2022-11-20T22:29:57;100868.66;;;-1.02;68.99
75409;BME280;63979;55.644;37.734;2022-11-20T22:34:58;100877.38;;;-1.02;68.68
75409;BME280;63979;55.644;37.734;2022-11-20T22:39:59;100880.88;;;-0.98;68.57
75409;BME280;63979;55.644;37.734;2022-11-20T22:45:00;100871.22;;;-0.93;68.79
75409;BME280;63979;55.644;37.734;2022-11-20T22:50:01;100867.75;;;-0.97;69.13
75409;BME280;63979;55.644;37.734;2022-11-20T22:55:04;100829.41;;;-1.14;69.04
75409;BME280;63979;55.644;37.734;2022-11-20T23:00:05;100845.94;;;-1.02;69.06
75409;BME280;63979;55.644;37.734;2022-11-20T23:05:07;100826.75;;;-1.11;69.03
75409;BME280;63979;55.644;37.734;2022-11-20T23:10:09;100836.31;;;-0.97;69.10
75409;BME280;63979;55.644;37.734;2022-11-20T23:15:10;100847.66;;;-0.95;69.16
75409;BME280;63979;55.644;37.734;2022-11-20T23:20:11;100772.69;;;-1.21;69.31
75409;BME280;63979;55.644;37.734;2022-11-20T23:25:12;100812.72;;;-0.93;69.49
75409;BME280;63979;55.644;37.734;2022-11-20T23:30:14;100824.94;;;-0.92;70.13
75409;BME280;63979;55.644;37.734;2022-11-20T23:35:15;100816.25;;;-1.01;70.25
75409;BME280;63979;55.644;37.734;2022-11-20T23:40:16;100843.34;;;-1.02;69.84
75409;BME280;63979;55.644;37.734;2022-11-20T23:45:17;100830.22;;;-0.99;69.68
75409;BME280;63979;55.644;37.734;2022-11-20T23:50:19;100776.19;;;-1.21;70.44
75409;BME280;63979;55.644;37.734;2022-11-20T23:55:20;100807.47;;;-0.93;70.68
